Time;durP1;ratioP1;P1;durP2;ratioP2;P2;SDS_P1;SDS_P2;PMS_P1;PMS_P2;Temp;Humidity;BMP_temperature;BMP_pressure;BME280_temperature;BME280_humidity;BME280_pressure;Samples;Min_cycle;Max_cycle;Signal;HPM_P1;HPM_P2
2023/08/15 00:01:53;;;;;;;;;13.00;13.00;;;;;;;;5041969;28;8805;-65
2023/08/15 00:04:18;;;;;;;;;12.67;12.00;;;;;;;;5030722;28;8809;-66
2023/08/15 00:06:43;;;;;;;;;13.67;13.00;;;;;;;;5049736;28;8787;-66
2023/08/15 00:09:09;;;;;;;;;13.00;12.00;;;;;;;;5044652;28;8819;-66
2023/08/15 00:11:34;;;;;;;;;11.00;10.67;;;;;;;;5030833;28;9572;-66
2023/08/15 00:13:59;;;;;;;;;13.33;11.00;;;;;;;;5030362;28;8797;-66
2023/08/15 00:16:24;;;;;;;;;11.33;11.33;;;;;;;;5030557;28;8813;-66
2023/08/15 00:18:50;;;;;;;;;13.33;13.00;;;;;;;;5030567;28;8794;-66
2023/08/15 00:21:15;;;;;;;;;10.67;10.67;;;;;;;;5030392;28;8809;-66
2023/08/15 00:23:40;;;;;;;;;8.00;8.00;;;;;;;;5030637;28;8824;-65
2023/08/15 00:26:06;;;;;;;;;11.33;10.00;;;;;;;;5030595;28;8901;-65
2023/08/15 00:28:31;;;;;;;;;11.33;11.33;;;;;;;;5030622;28;8789;-65
2023/08/15 00:30:56;;;;;;;;;13.67;10.67;;;;;;;;5037687;28;9011;-66
2023/08/15 00:33:21;;;;;;;;;12.00;11.33;;;;;;;;5033003;28;8841;-66
2023/08/15 00:35:47;;;;;;;;;12.00;11.00;;;;;;;;5040332;28;8819;-66
2023/08/15 00:38:13;;;;;;;;;14.67;13.33;;;;;;;;5049295;28;9164;-65
2023/08/15 00:40:39;;;;;;;;;11.00;11.00;;;;;;;;5049136;28;8822;-65
2023/08/15 00:43:04;;;;;;;;;9.25;9.00;;;;;;;;5048984;28;8830;-65
2023/08/15 00:45:30;;;;;;;;;11.00;11.00;;;;;;;;5050159;28;8799;-65
2023/08/15 00:47:56;;;;;;;;;11.50;11.00;;;;;;;;5050049;28;8913;-65
2023/08/15 00:50:23;;;;;;;;;9.33;9.33;;;;;;;;5049639;28;8858;-65
2023/08/15 00:52:48;;;;;;;;;11.00;10.00;;;;;;;;5048634;28;8819;-65
2023/08/15 00:55:14;;;;;;;;;10.67;10.67;;;;;;;;5050166;28;9225;-65
2023/08/15 00:57:39;;;;;;;;;10.00;10.00;;;;;;;;5049948;28;9027;-65
2023/08/15 01:00:05;;;;;;;;;11.00;10.00;;;;;;;;5049762;28;8888;-65
2023/08/15 01:02:30;;;;;;;;;10.67;9.67;;;;;;;;5043890;28;8810;-65
2023/08/15 01:04:56;;;;;;;;;10.00;10.00;;;;;;;;5041355;28;8823;-65
2023/08/15 01:07:21;;;;;;;;;11.00;10.67;;;;;;;;5049379;28;9528;-65
2023/08/15 01:09:46;;;;;;;;;10.00;10.00;;;;;;;;5049906;28;8811;-65
2023/08/15 01:12:25;;;;;;;;;9.33;9.33;;;;;;;;5048438;28;9663;-65
2023/08/15 01:15:03;;;;;;;;;10.00;9.50;;;;;;;;5050056;28;8791;-65
2023/08/15 01:17:33;;;;;;;;;11.25;10.25;;;;;;;;5049794;28;8811;-65
2023/08/15 01:19:59;;;;;;;;;11.25;10.50;;;;;;;;5050144;28;8779;-65
2023/08/15 01:22:27;;;;;;;;;9.33;9.33;;;;;;;;5049720;28;8931;-65
2023/08/15 01:24:53;;;;;;;;;11.00;10.25;;;;;;;;5049419;28;8795;-65
2023/08/15 01:27:18;;;;;;;;;9.67;9.00;;;;;;;;5049913;28;8840;-65
2023/08/15 01:29:43;;;;;;;;;10.00;9.33;;;;;;;;5049791;28;8779;-65
2023/08/15 01:32:15;;;;;;;;;11.00;10.00;;;;;;;;5049969;28;9548;-65
2023/08/15 01:34:50;;;;;;;;;11.50;10.00;;;;;;;;5049683;28;9579;-66
2023/08/15 01:37:29;;;;;;;;;9.00;7.50;;;;;;;;5049790;28;8827;-66
2023/08/15 01:39:55;;;;;;;;;10.33;10.33;;;;;;;;5049495;28;8791;-66
2023/08/15 01:42:22;;;;;;;;;12.67;10.67;;;;;;;;5049436;28;8985;-66
2023/08/15 01:44:48;;;;;;;;;11.25;11.25;;;;;;;;5049568;28;8884;-66
2023/08/15 01:47:13;;;;;;;;;13.00;12.00;;;;;;;;5050193;28;8884;-66
2023/08/15 01:49:39;;;;;;;;;10.67;10.33;;;;;;;;5053361;28;11514;-66
2023/08/15 01:52:04;;;;;;;;;12.67;12.67;;;;;;;;5052994;28;8849;-66
2023/08/15 01:54:29;;;;;;;;;10.00;10.00;;;;;;;;5053098;28;8803;-66
2023/08/15 01:56:55;;;;;;;;;11.67;11.67;;;;;;;;5053021;28;8806;-66
2023/08/15 01:59:20;;;;;;;;;11.67;11.67;;;;;;;;5053162;28;8795;-66
2023/08/15 02:01:45;;;;;;;;;13.67;12.00;;;;;;;;5052785;28;8818;-66
2023/08/15 02:04:11;;;;;;;;;13.33;11.67;;;;;;;;5053101;28;8810;-66
2023/08/15 02:06:36;;;;;;;;;14.00;11.00;;;;;;;;5052783;28;8811;-66
2023/08/15 02:09:01;;;;;;;;;12.00;11.00;;;;;;;;5052962;28;8791;-66
2023/08/15 02:11:27;;;;;;;;;12.00;12.00;;;;;;;;5052862;28;8860;-67
2023/08/15 02:13:54;;;;;;;;;14.67;12.00;;;;;;;;5052986;28;8787;-66
2023/08/15 02:16:19;;;;;;;;;12.00;12.00;;;;;;;;5052777;28;8814;-67
2023/08/15 02:18:44;;;;;;;;;13.00;12.33;;;;;;;;5052438;28;9045;-66
2023/08/15 02:21:09;;;;;;;;;12.33;12.33;;;;;;;;5052883;28;8829;-66
2023/08/15 02:23:35;;;;;;;;;12.33;10.33;;;;;;;;5052724;28;9513;-66
2023/08/15 02:26:00;;;;;;;;;10.33;10.33;;;;;;;;5052584;28;8779;-66
2023/08/15 02:28:25;;;;;;;;;10.00;10.00;;;;;;;;5052825;28;8910;-67
2023/08/15 02:30:54;;;;;;;;;8.00;8.00;;;;;;;;5052660;28;8830;-66
2023/08/15 02:33:19;;;;;;;;;9.67;9.00;;;;;;;;5052623;28;9545;-66
2023/08/15 02:35:49;;;;;;;;;10.33;9.67;;;;;;;;5052613;28;9380;-67
2023/08/15 02:38:15;;;;;;;;;8.00;8.00;;;;;;;;5051909;28;8803;-66
2023/08/15 02:40:41;;;;;;;;;10.00;9.33;;;;;;;;5052675;28;9865;-67
2023/08/15 02:43:06;;;;;;;;;10.00;10.00;;;;;;;;5052428;28;8782;-67
2023/08/15 02:45:31;;;;;;;;;12.00;10.33;;;;;;;;5052381;28;8962;-67
2023/08/15 02:47:57;;;;;;;;;10.00;9.00;;;;;;;;5052418;28;9588;-66
2023/08/15 02:50:22;;;;;;;;;10.00;10.00;;;;;;;;5052251;28;8864;-67
2023/08/15 02:52:47;;;;;;;;;12.33;9.67;;;;;;;;5052088;28;8917;-66
2023/08/15 02:55:12;;;;;;;;;12.33;12.33;;;;;;;;5051685;28;8790;-66
2023/08/15 02:57:38;;;;;;;;;9.67;8.00;;;;;;;;5052090;28;8795;-67
2023/08/15 03:00:04;;;;;;;;;10.00;8.67;;;;;;;;5052125;28;8809;-67
2023/08/15 03:02:29;;;;;;;;;15.00;11.25;;;;;;;;5052066;28;8814;-67
2023/08/15 03:04:55;;;;;;;;;15.00;10.00;;;;;;;;5051774;28;8846;-67
2023/08/15 03:07:20;;;;;;;;;9.75;8.50;;;;;;;;5050818;28;8817;-67
2023/08/15 03:09:45;;;;;;;;;10.75;9.75;;;;;;;;5051823;28;8783;-67
2023/08/15 03:12:11;;;;;;;;;13.00;10.00;;;;;;;;5051362;28;9600;-66
2023/08/15 03:14:36;;;;;;;;;14.33;12.67;;;;;;;;5051898;28;8783;-67
2023/08/15 03:17:02;;;;;;;;;12.00;11.25;;;;;;;;5051762;28;8803;-67
2023/08/15 03:19:27;;;;;;;;;11.00;10.67;;;;;;;;5051758;28;8801;-66
2023/08/15 03:21:53;;;;;;;;;6.33;6.33;;;;;;;;5051543;28;9260;-67
2023/08/15 03:24:18;;;;;;;;;12.00;8.67;;;;;;;;5051455;28;8779;-67
2023/08/15 03:26:44;;;;;;;;;9.00;8.00;;;;;;;;5051545;28;8811;-66
2023/08/15 03:29:09;;;;;;;;;9.00;9.00;;;;;;;;5051639;28;8815;-66
2023/08/15 03:31:34;;;;;;;;;11.00;10.67;;;;;;;;5050977;28;9810;-66
2023/08/15 03:34:00;;;;;;;;;8.67;7.67;;;;;;;;5051343;28;8787;-66
2023/08/15 03:36:25;;;;;;;;;8.33;7.33;;;;;;;;5051772;28;8826;-65
2023/08/15 03:38:50;;;;;;;;;11.67;8.00;;;;;;;;5051327;28;8894;-66
2023/08/15 03:41:15;;;;;;;;;5.00;5.00;;;;;;;;5051520;28;8814;-66
2023/08/15 03:43:41;;;;;;;;;8.25;8.25;;;;;;;;5051466;28;8797;-67
2023/08/15 03:46:06;;;;;;;;;8.00;8.00;;;;;;;;5051283;28;8794;-66
2023/08/15 03:48:32;;;;;;;;;5.67;5.67;;;;;;;;5051034;28;8918;-66
2023/08/15 03:50:58;;;;;;;;;8.67;8.00;;;;;;;;5051078;28;9064;-66
2023/08/15 03:53:27;;;;;;;;;7.67;7.00;;;;;;;;5050728;28;8818;-66
2023/08/15 03:55:53;;;;;;;;;7.67;7.67;;;;;;;;5049599;28;9463;-66
2023/08/15 03:58:19;;;;;;;;;8.00;8.00;;;;;;;;5050380;28;9443;-67
2023/08/15 04:00:44;;;;;;;;;8.33;7.67;;;;;;;;5050516;28;8819;-67
2023/08/15 04:03:09;;;;;;;;;7.33;7.33;;;;;;;;5050558;28;11460;-66
2023/08/15 04:05:35;;;;;;;;;13.00;8.33;;;;;;;;5050386;28;8981;-66
2023/08/15 04:08:00;;;;;;;;;10.50;10.50;;;;;;;;5050441;28;8811;-66
2023/08/15 04:10:26;;;;;;;;;8.33;8.33;;;;;;;;5050232;28;8807;-66
2023/08/15 04:12:51;;;;;;;;;9.50;9.00;;;;;;;;5050415;28;8900;-66
2023/08/15 04:15:16;;;;;;;;;9.00;8.33;;;;;;;;5050172;28;8823;-66
2023/08/15 04:17:42;;;;;;;;;10.50;10.50;;;;;;;;5050023;28;8890;-66
2023/08/15 04:20:07;;;;;;;;;11.33;9.00;;;;;;;;5048805;28;8945;-66
2023/08/15 04:22:32;;;;;;;;;12.50;11.00;;;;;;;;5049552;28;8807;-65
2023/08/15 04:24:58;;;;;;;;;10.00;10.00;;;;;;;;5050118;28;9544;-66
2023/08/15 04:27:23;;;;;;;;;6.00;6.00;;;;;;;;5050143;28;8857;-66
2023/08/15 04:29:48;;;;;;;;;8.50;8.00;;;;;;;;5049688;28;8795;-67
2023/08/15 04:32:14;;;;;;;;;11.00;9.00;;;;;;;;5049443;28;8924;-65
2023/08/15 04:34:39;;;;;;;;;8.33;8.33;;;;;;;;5049683;28;8775;-65
2023/08/15 04:37:04;;;;;;;;;9.67;8.00;;;;;;;;5049336;28;8878;-66
2023/08/15 04:39:30;;;;;;;;;7.25;7.25;;;;;;;;5050051;28;8799;-66
2023/08/15 04:41:55;;;;;;;;;11.00;8.75;;;;;;;;5049372;28;8807;-66
2023/08/15 04:44:21;;;;;;;;;8.25;8.00;;;;;;;;5055525;28;9556;-65
2023/08/15 04:46:46;;;;;;;;;8.75;7.75;;;;;;;;5058777;28;8878;-66
2023/08/15 04:49:12;;;;;;;;;7.00;7.00;;;;;;;;5059942;28;8783;-66
2023/08/15 04:51:37;;;;;;;;;7.33;6.00;;;;;;;;5058404;28;8933;-66
2023/08/15 04:54:03;;;;;;;;;8.00;8.00;;;;;;;;5060416;28;9149;-67
2023/08/15 04:56:28;;;;;;;;;11.75;9.25;;;;;;;;5059312;28;8799;-66
2023/08/15 04:58:53;;;;;;;;;8.00;8.00;;;;;;;;5059249;28;8807;-66
2023/08/15 05:01:19;;;;;;;;;9.33;9.00;;;;;;;;5060174;28;8815;-65
2023/08/15 05:03:45;;;;;;;;;34.25;31.25;;;;;;;;5058508;28;8799;-66
2023/08/15 05:06:10;;;;;;;;;19.50;19.50;;;;;;;;5059041;28;8807;-66
2023/08/15 05:08:35;;;;;;;;;10.50;9.00;;;;;;;;5058561;28;8835;-66
2023/08/15 05:11:01;;;;;;;;;13.50;12.00;;;;;;;;5051923;28;8965;-66
2023/08/15 05:13:26;;;;;;;;;11.00;11.00;;;;;;;;5049272;28;8813;-66
2023/08/15 05:15:52;;;;;;;;;8.75;7.50;;;;;;;;5049338;28;8755;-67
2023/08/15 05:18:17;;;;;;;;;10.75;9.50;;;;;;;;5049283;28;8799;-66
2023/08/15 05:20:45;;;;;;;;;8.25;8.25;;;;;;;;5049127;28;8814;-66
2023/08/15 05:23:10;;;;;;;;;9.50;9.50;;;;;;;;5051194;28;8803;-66
2023/08/15 05:25:35;;;;;;;;;11.25;9.50;;;;;;;;5053361;28;9572;-66
2023/08/15 05:28:07;;;;;;;;;7.75;7.00;;;;;;;;5053397;28;8972;-66
2023/08/15 05:30:32;;;;;;;;;12.25;10.50;;;;;;;;5053178;28;8867;-66
2023/08/15 05:32:58;;;;;;;;;8.25;8.00;;;;;;;;5050271;28;9658;-65
2023/08/15 05:35:24;;;;;;;;;8.25;8.25;;;;;;;;5053243;28;8821;-66
2023/08/15 05:37:49;;;;;;;;;10.00;8.00;;;;;;;;5051257;28;8787;-66
2023/08/15 05:40:15;;;;;;;;;9.25;9.25;;;;;;;;5053097;28;8830;-66
2023/08/15 05:42:40;;;;;;;;;9.00;9.00;;;;;;;;5053167;28;8818;-66
2023/08/15 05:45:05;;;;;;;;;8.25;7.00;;;;;;;;5052943;28;8810;-66
2023/08/15 05:47:31;;;;;;;;;7.50;7.00;;;;;;;;5052955;28;8825;-65
2023/08/15 05:49:56;;;;;;;;;7.00;6.67;;;;;;;;5051863;28;8921;-65
2023/08/15 05:52:22;;;;;;;;;10.50;10.50;;;;;;;;5050809;28;8859;-66
2023/08/15 05:54:47;;;;;;;;;7.75;7.75;;;;;;;;5052328;28;8911;-66
2023/08/15 05:57:13;;;;;;;;;8.00;8.00;;;;;;;;5052698;28;8815;-66
2023/08/15 05:59:38;;;;;;;;;12.25;11.00;;;;;;;;5052740;28;8817;-67
2023/08/15 06:02:04;;;;;;;;;8.00;8.00;;;;;;;;5052779;28;8838;-66
2023/08/15 06:04:29;;;;;;;;;9.50;9.25;;;;;;;;5052837;28;8802;-66
2023/08/15 06:06:54;;;;;;;;;10.50;10.50;;;;;;;;5052193;28;8823;-67
2023/08/15 06:09:20;;;;;;;;;11.00;8.00;;;;;;;;5052562;28;8864;-67
2023/08/15 06:11:45;;;;;;;;;10.75;10.75;;;;;;;;5052613;28;8823;-67
2023/08/15 06:14:10;;;;;;;;;9.50;8.00;;;;;;;;5052518;28;8860;-67
2023/08/15 06:16:36;;;;;;;;;11.50;10.75;;;;;;;;5052923;28;8794;-67
2023/08/15 06:19:01;;;;;;;;;11.00;8.00;;;;;;;;5052810;28;8868;-67
2023/08/15 06:21:27;;;;;;;;;11.25;11.25;;;;;;;;5051420;28;8973;-67
2023/08/15 06:23:52;;;;;;;;;11.75;11.00;;;;;;;;5052816;28;8826;-67
2023/08/15 06:26:18;;;;;;;;;8.25;8.25;;;;;;;;5052602;28;8910;-67
2023/08/15 06:28:43;;;;;;;;;13.25;12.00;;;;;;;;5052848;28;8897;-68
2023/08/15 06:31:08;;;;;;;;;8.33;8.33;;;;;;;;5052121;28;8830;-68
2023/08/15 06:33:34;;;;;;;;;10.50;10.25;;;;;;;;5052209;28;8876;-68
2023/08/15 06:35:59;;;;;;;;;9.67;9.33;;;;;;;;5052477;28;8988;-65
2023/08/15 06:38:25;;;;;;;;;14.25;12.50;;;;;;;;5052542;28;8771;-66
2023/08/15 06:40:50;;;;;;;;;11.00;8.50;;;;;;;;5052450;28;8807;-67
2023/08/15 06:43:16;;;;;;;;;29.25;27.00;;;;;;;;5052187;28;9544;-67
2023/08/15 06:45:41;;;;;;;;;19.00;17.00;;;;;;;;5052344;28;8807;-67
2023/08/15 06:48:06;;;;;;;;;33.50;27.75;;;;;;;;5052292;28;8811;-67
2023/08/15 06:50:32;;;;;;;;;26.00;24.75;;;;;;;;5051956;28;8818;-67
2023/08/15 07:37:54;;;;;;;;;14.33;14.33;;;;;;;;5104509;27;13501;-64
2023/08/15 07:40:21;;;;;;;;;13.33;13.00;;;;;;;;5106344;28;9380;-64
2023/08/15 07:42:49;;;;;;;;;15.00;15.00;;;;;;;;5106723;28;8966;-67
2023/08/15 07:45:15;;;;;;;;;12.75;12.50;;;;;;;;5108034;28;8993;-69
2023/08/15 07:47:40;;;;;;;;;16.67;16.33;;;;;;;;5107843;28;8900;-68
2023/08/15 07:50:15;;;;;;;;;14.67;14.67;;;;;;;;5107843;28;8784;-68
2023/08/15 07:52:41;;;;;;;;;16.75;15.75;;;;;;;;5107653;28;8807;-68
2023/08/15 07:55:07;;;;;;;;;15.00;15.00;;;;;;;;5107468;28;8811;-66
2023/08/15 07:57:32;;;;;;;;;17.75;17.25;;;;;;;;5105151;27;8820;-66
2023/08/15 07:59:57;;;;;;;;;24.67;21.67;;;;;;;;5098702;28;8822;-67
2023/08/15 08:02:24;;;;;;;;;14.00;14.00;;;;;;;;5085825;28;9804;-67
2023/08/15 08:04:49;;;;;;;;;15.75;15.50;;;;;;;;5089030;28;8950;-67
2023/08/15 08:07:15;;;;;;;;;15.00;13.33;;;;;;;;5106058;28;9012;-68
2023/08/15 08:09:40;;;;;;;;;13.33;13.00;;;;;;;;5107529;28;8788;-68
2023/08/15 08:12:06;;;;;;;;;13.00;13.00;;;;;;;;5107861;28;8784;-68
2023/08/15 08:14:31;;;;;;;;;15.00;14.00;;;;;;;;5094909;28;8811;-67
2023/08/15 08:16:56;;;;;;;;;14.00;13.33;;;;;;;;5101734;28;8958;-67
2023/08/15 08:19:22;;;;;;;;;15.33;14.00;;;;;;;;5105342;28;9545;-67
2023/08/15 08:21:47;;;;;;;;;11.67;11.67;;;;;;;;5105189;28;8828;-68
2023/08/15 08:24:12;;;;;;;;;13.00;13.00;;;;;;;;5107205;28;8873;-67
2023/08/15 08:26:38;;;;;;;;;12.00;12.00;;;;;;;;5105786;28;8808;-68
2023/08/15 08:29:03;;;;;;;;;59.25;48.50;;;;;;;;5104514;28;8800;-70
2023/08/15 08:31:28;;;;;;;;;42.33;36.00;;;;;;;;5106564;28;9621;-69
2023/08/15 08:33:54;;;;;;;;;17.67;17.67;;;;;;;;5106720;28;8784;-67
2023/08/15 08:36:19;;;;;;;;;21.00;18.00;;;;;;;;5106081;28;9569;-68
2023/08/15 08:38:44;;;;;;;;;14.00;14.00;;;;;;;;5105053;28;8812;-67
2023/08/15 08:41:10;;;;;;;;;13.75;12.00;;;;;;;;5021003;27;11153;-69
2023/08/15 08:43:35;;;;;;;;;18.00;16.33;;;;;;;;5065102;28;8812;-69
2023/08/15 08:46:03;;;;;;;;;21.00;19.67;;;;;;;;5065476;28;8805;-69
2023/08/15 08:48:29;;;;;;;;;14.80;13.00;;;;;;;;5055592;28;8809;-71
2023/08/15 08:50:55;;;;;;;;;12.80;12.00;;;;;;;;5049472;28;8828;-71
2023/08/15 08:53:21;;;;;;;;;23.75;23.25;;;;;;;;5050721;28;8897;-69
2023/08/15 08:55:47;;;;;;;;;20.33;20.00;;;;;;;;5051506;28;8913;-68
2023/08/15 08:58:13;;;;;;;;;23.80;23.80;;;;;;;;5052690;28;8825;-69
2023/08/15 09:00:40;;;;;;;;;18.00;18.00;;;;;;;;5052741;28;8836;-68
2023/08/15 09:03:05;;;;;;;;;17.60;17.00;;;;;;;;5052715;28;8785;-67
2023/08/15 09:05:30;;;;;;;;;16.75;16.75;;;;;;;;5043768;28;8796;-67
2023/08/15 09:07:56;;;;;;;;;19.50;18.00;;;;;;;;5032476;28;8819;-68
2023/08/15 09:10:22;;;;;;;;;13.50;13.00;;;;;;;;5032145;28;8826;-68
2023/08/15 09:12:47;;;;;;;;;18.25;17.00;;;;;;;;5032656;28;8794;-69
2023/08/15 09:15:12;;;;;;;;;11.50;11.50;;;;;;;;5032727;28;8776;-69
2023/08/15 09:17:38;;;;;;;;;11.00;10.25;;;;;;;;5032504;28;8835;-68
2023/08/15 09:20:13;;;;;;;;;9.75;9.75;;;;;;;;5032552;28;8854;-65
2023/08/15 09:22:40;;;;;;;;;22.40;22.40;;;;;;;;5032105;28;9510;-69
2023/08/15 09:25:06;;;;;;;;;21.40;19.60;;;;;;;;5032735;28;8799;-65
2023/08/15 09:27:31;;;;;;;;;16.50;15.75;;;;;;;;5031806;28;9546;-66
2023/08/15 09:29:56;;;;;;;;;15.25;13.50;;;;;;;;5032385;28;8788;-66
2023/08/15 09:32:24;;;;;;;;;12.00;11.75;;;;;;;;5032235;28;8799;-66
2023/08/15 09:34:49;;;;;;;;;32.50;30.25;;;;;;;;5032212;28;8949;-64
2023/08/15 09:37:15;;;;;;;;;14.00;14.00;;;;;;;;5031725;28;8957;-65
2023/08/15 09:39:40;;;;;;;;;14.00;14.00;;;;;;;;5032268;28;8784;-64
2023/08/15 09:42:05;;;;;;;;;12.00;12.00;;;;;;;;5032179;28;9676;-64
2023/08/15 09:44:34;;;;;;;;;21.25;20.75;;;;;;;;5031676;28;9566;-64
2023/08/15 09:47:00;;;;;;;;;27.80;27.60;;;;;;;;5031733;28;8804;-64
2023/08/15 09:49:26;;;;;;;;;30.50;28.75;;;;;;;;5031971;28;8803;-64
2023/08/15 09:51:51;;;;;;;;;15.50;15.25;;;;;;;;5031959;28;8937;-65
2023/08/15 09:54:18;;;;;;;;;11.50;11.50;;;;;;;;5030307;28;11495;-64
2023/08/15 09:56:44;;;;;;;;;17.20;15.80;;;;;;;;5031755;28;8857;-64
2023/08/15 09:59:09;;;;;;;;;19.00;19.00;;;;;;;;5031052;28;8908;-64
2023/08/15 10:01:36;;;;;;;;;22.00;21.00;;;;;;;;5031308;28;8792;-64
2023/08/15 10:04:03;;;;;;;;;18.20;18.20;;;;;;;;5031012;28;8821;-64
2023/08/15 10:06:28;;;;;;;;;10.80;10.40;;;;;;;;5031430;28;8832;-68
2023/08/15 10:08:54;;;;;;;;;23.25;22.50;;;;;;;;5038706;28;8812;-67
2023/08/15 10:11:19;;;;;;;;;25.50;22.00;;;;;;;;5051112;28;8805;-66
2023/08/15 10:13:46;;;;;;;;;21.67;21.67;;;;;;;;5050692;28;11579;-67
2023/08/15 10:16:12;;;;;;;;;16.00;15.40;;;;;;;;5050668;28;8841;-68
2023/08/15 10:18:37;;;;;;;;;17.60;16.80;;;;;;;;5051001;28;8889;-67
2023/08/15 10:21:03;;;;;;;;;12.75;12.75;;;;;;;;5050989;28;8817;-67
2023/08/15 10:23:29;;;;;;;;;13.00;12.00;;;;;;;;5050521;28;8793;-67
2023/08/15 10:25:58;;;;;;;;;19.50;17.50;;;;;;;;5049800;28;8817;-68
2023/08/15 10:28:25;;;;;;;;;26.00;26.00;;;;;;;;5049752;28;8805;-66
2023/08/15 10:30:50;;;;;;;;;35.25;30.00;;;;;;;;5051163;28;8781;-67
2023/08/15 10:33:17;;;;;;;;;30.33;28.00;;;;;;;;5050957;28;8808;-68
2023/08/15 10:35:53;;;;;;;;;19.25;18.25;;;;;;;;5050520;28;8829;-67
2023/08/15 10:38:20;;;;;;;;;29.00;28.25;;;;;;;;5049176;28;8986;-67
2023/08/15 10:40:45;;;;;;;;;15.50;14.00;;;;;;;;5049442;28;8849;-67
2023/08/15 10:43:12;;;;;;;;;27.33;24.00;;;;;;;;5050309;28;8931;-66
2023/08/15 10:45:41;;;;;;;;;20.00;17.00;;;;;;;;5050819;28;8817;-66
2023/08/15 10:48:08;;;;;;;;;23.25;23.25;;;;;;;;5050451;28;8789;-67
2023/08/15 10:50:34;;;;;;;;;13.67;13.67;;;;;;;;5050727;28;8789;-67
2023/08/15 10:53:00;;;;;;;;;14.67;14.67;;;;;;;;5048877;28;8851;-68
2023/08/15 10:55:27;;;;;;;;;14.00;14.00;;;;;;;;5050251;28;8789;-68
2023/08/15 10:57:53;;;;;;;;;16.50;16.00;;;;;;;;5050493;28;8839;-67
2023/08/15 11:00:21;;;;;;;;;17.75;17.50;;;;;;;;5050646;28;8804;-67
2023/08/15 11:02:47;;;;;;;;;25.25;24.00;;;;;;;;5050133;28;8893;-66
2023/08/15 11:05:13;;;;;;;;;15.50;15.50;;;;;;;;5050341;28;8889;-65
2023/08/15 11:07:41;;;;;;;;;23.67;23.67;;;;;;;;5048679;28;8801;-66
2023/08/15 11:10:07;;;;;;;;;21.00;20.00;;;;;;;;5050279;28;8804;-66
2023/08/15 11:12:32;;;;;;;;;16.50;16.50;;;;;;;;5049776;28;8839;-66
2023/08/15 11:14:57;;;;;;;;;26.00;24.67;;;;;;;;5049742;28;8823;-66
2023/08/15 11:17:23;;;;;;;;;27.00;25.67;;;;;;;;5049839;28;8857;-65
2023/08/15 11:19:48;;;;;;;;;28.00;27.00;;;;;;;;5049869;28;8797;-68
2023/08/15 11:22:13;;;;;;;;;27.33;25.33;;;;;;;;5044719;28;8829;-67
2023/08/15 11:24:39;;;;;;;;;25.00;23.67;;;;;;;;5049860;28;9524;-69
2023/08/15 11:27:04;;;;;;;;;29.00;27.33;;;;;;;;5049783;28;8839;-68
2023/08/15 11:29:29;;;;;;;;;29.00;27.67;;;;;;;;5050182;28;8801;-66
2023/08/15 11:31:58;;;;;;;;;18.67;17.33;;;;;;;;5049713;28;8781;-70
2023/08/15 11:34:24;;;;;;;;;27.75;27.00;;;;;;;;5049867;28;8903;-67
2023/08/15 11:36:49;;;;;;;;;22.67;22.33;;;;;;;;5029460;28;8950;-67
2023/08/15 11:39:14;;;;;;;;;16.33;16.33;;;;;;;;5029677;28;8812;-69
2023/08/15 11:41:40;;;;;;;;;28.00;28.00;;;;;;;;5029821;28;8822;-71
2023/08/15 11:44:05;;;;;;;;;26.00;26.00;;;;;;;;5029479;28;9592;-69
2023/08/15 11:46:42;;;;;;;;;20.00;20.00;;;;;;;;5049007;28;8833;-70
2023/08/15 11:49:14;;;;;;;;;17.25;17.25;;;;;;;;5046850;28;8797;-68
2023/08/15 11:51:40;;;;;;;;;14.50;14.00;;;;;;;;5047866;28;8813;-70
2023/08/15 11:54:05;;;;;;;;;16.00;16.00;;;;;;;;5048810;28;9713;-69
2023/08/15 11:56:46;;;;;;;;;20.67;20.67;;;;;;;;5048796;28;8845;-69
2023/08/15 11:59:15;;;;;;;;;17.25;16.25;;;;;;;;5046098;28;8809;-68
2023/08/15 12:01:43;;;;;;;;;20.75;20.75;;;;;;;;5049303;28;8838;-69
2023/08/15 12:04:12;;;;;;;;;15.00;14.50;;;;;;;;5049677;28;8867;-67
2023/08/15 12:06:38;;;;;;;;;11.00;11.00;;;;;;;;5031449;28;8866;-67
2023/08/15 12:09:05;;;;;;;;;17.50;17.25;;;;;;;;5029457;28;8823;-66
2023/08/15 12:11:32;;;;;;;;;14.75;14.75;;;;;;;;5029632;28;8804;-66
2023/08/15 12:13:58;;;;;;;;;14.00;14.00;;;;;;;;5029266;28;8835;-65
2023/08/15 12:16:23;;;;;;;;;18.67;18.67;;;;;;;;5027497;28;8839;-65
2023/08/15 12:18:48;;;;;;;;;16.00;16.00;;;;;;;;5028303;28;8808;-64
2023/08/15 12:21:14;;;;;;;;;13.67;13.67;;;;;;;;5030044;28;8819;-64
2023/08/15 12:23:39;;;;;;;;;16.00;15.33;;;;;;;;5032873;28;8803;-66
2023/08/15 12:26:04;;;;;;;;;14.00;14.00;;;;;;;;5051941;28;8849;-67
2023/08/15 12:28:30;;;;;;;;;12.33;12.33;;;;;;;;5051359;28;8809;-66
2023/08/15 12:30:55;;;;;;;;;14.00;14.00;;;;;;;;5051378;28;8835;-66
2023/08/15 12:33:20;;;;;;;;;12.67;12.67;;;;;;;;5051553;28;8901;-66
2023/08/15 12:35:46;;;;;;;;;15.67;13.67;;;;;;;;5048441;28;8991;-66
2023/08/15 12:38:11;;;;;;;;;13.00;12.67;;;;;;;;5051169;28;8820;-65
2023/08/15 12:40:40;;;;;;;;;14.67;13.67;;;;;;;;5047993;28;8814;-65
2023/08/15 12:43:05;;;;;;;;;14.25;13.50;;;;;;;;5049826;28;8805;-66
2023/08/15 12:45:30;;;;;;;;;13.67;13.67;;;;;;;;5051067;28;8793;-67
2023/08/15 12:47:55;;;;;;;;;13.67;13.67;;;;;;;;5050970;28;8940;-66
2023/08/15 12:50:21;;;;;;;;;15.33;15.33;;;;;;;;5049857;28;8851;-66
2023/08/15 12:52:47;;;;;;;;;18.67;17.67;;;;;;;;5050704;28;8829;-66
2023/08/15 12:55:12;;;;;;;;;16.33;16.33;;;;;;;;5051006;28;8916;-66
2023/08/15 12:57:37;;;;;;;;;14.00;14.00;;;;;;;;5050398;28;8983;-65
2023/08/15 13:00:03;;;;;;;;;14.00;14.00;;;;;;;;5050887;28;8844;-66
2023/08/15 13:02:29;;;;;;;;;15.00;15.00;;;;;;;;5051041;28;8908;-64
2023/08/15 13:04:54;;;;;;;;;17.33;16.00;;;;;;;;5051289;28;8809;-64
2023/08/15 13:07:20;;;;;;;;;17.00;17.00;;;;;;;;5051065;28;8833;-64
2023/08/15 13:09:45;;;;;;;;;14.00;14.00;;;;;;;;5047085;28;8813;-65
2023/08/15 13:12:11;;;;;;;;;15.00;15.00;;;;;;;;5044799;28;9612;-65
2023/08/15 13:14:36;;;;;;;;;15.33;15.00;;;;;;;;5050159;28;8943;-65
2023/08/15 13:17:03;;;;;;;;;15.33;15.33;;;;;;;;5050275;28;8849;-65
2023/08/15 13:19:29;;;;;;;;;18.50;15.75;;;;;;;;5050516;28;8836;-64
2023/08/15 13:21:55;;;;;;;;;16.00;16.00;;;;;;;;5050654;28;8809;-65
2023/08/15 13:24:21;;;;;;;;;17.33;16.67;;;;;;;;5050293;28;8809;-66
2023/08/15 13:26:46;;;;;;;;;15.50;14.75;;;;;;;;5050527;28;8769;-66
2023/08/15 13:29:12;;;;;;;;;14.67;14.67;;;;;;;;5047656;28;8832;-65
2023/08/15 13:31:37;;;;;;;;;16.67;16.67;;;;;;;;5050375;28;9819;-65
2023/08/15 13:34:02;;;;;;;;;17.00;17.00;;;;;;;;5050239;28;8789;-65
2023/08/15 13:36:28;;;;;;;;;11.67;11.33;;;;;;;;5049927;28;8999;-65
2023/08/15 13:38:53;;;;;;;;;13.00;13.00;;;;;;;;5050520;28;8813;-64
2023/08/15 13:41:18;;;;;;;;;17.00;16.33;;;;;;;;5047145;28;8831;-65
2023/08/15 13:43:44;;;;;;;;;17.67;17.00;;;;;;;;5049740;28;8805;-65
2023/08/15 13:46:11;;;;;;;;;13.67;13.67;;;;;;;;5051516;28;8832;-66
2023/08/15 13:48:37;;;;;;;;;18.50;18.50;;;;;;;;5051445;28;8847;-65
2023/08/15 13:51:03;;;;;;;;;16.50;16.00;;;;;;;;5051490;28;8836;-65
2023/08/15 13:53:29;;;;;;;;;18.00;18.00;;;;;;;;5051408;28;8829;-65
2023/08/15 13:55:57;;;;;;;;;18.67;18.67;;;;;;;;5051111;28;8825;-63
2023/08/15 13:58:24;;;;;;;;;17.75;17.00;;;;;;;;5051188;28;8851;-64
2023/08/15 14:00:49;;;;;;;;;17.75;17.75;;;;;;;;5049674;28;8837;-63
2023/08/15 14:03:14;;;;;;;;;18.00;17.00;;;;;;;;5050942;28;8801;-63
2023/08/15 14:05:39;;;;;;;;;18.33;18.33;;;;;;;;5050313;28;8904;-63
2023/08/15 14:08:06;;;;;;;;;19.33;18.00;;;;;;;;5048807;28;9565;-65
2023/08/15 14:10:31;;;;;;;;;18.75;18.75;;;;;;;;5048704;28;8809;-65
2023/08/15 14:12:57;;;;;;;;;12.33;12.33;;;;;;;;5047652;28;8809;-65
2023/08/15 14:15:22;;;;;;;;;16.33;16.33;;;;;;;;5048022;28;8825;-64
2023/08/15 14:17:47;;;;;;;;;19.00;17.00;;;;;;;;5049444;28;8993;-64
2023/08/15 14:20:12;;;;;;;;;16.67;16.67;;;;;;;;5049675;28;8789;-63
2023/08/15 14:22:38;;;;;;;;;15.00;15.00;;;;;;;;5049821;28;8924;-64
2023/08/15 14:25:03;;;;;;;;;17.00;15.67;;;;;;;;5049348;28;8852;-66
2023/08/15 14:27:28;;;;;;;;;16.67;16.67;;;;;;;;5050091;28;8813;-66
2023/08/15 14:29:54;;;;;;;;;16.67;16.67;;;;;;;;5049629;28;8809;-65
2023/08/15 14:32:19;;;;;;;;;14.67;13.33;;;;;;;;5049520;28;8793;-65
2023/08/15 14:34:46;;;;;;;;;17.67;16.67;;;;;;;;5049650;28;8821;-66
2023/08/15 14:37:11;;;;;;;;;15.75;14.25;;;;;;;;5049226;28;8951;-66
2023/08/15 14:39:36;;;;;;;;;18.67;17.33;;;;;;;;5049428;28;9106;-66
2023/08/15 14:42:02;;;;;;;;;18.33;16.00;;;;;;;;5046761;28;8820;-64
2023/08/15 14:44:28;;;;;;;;;24.33;21.00;;;;;;;;5045202;28;9614;-65
2023/08/15 14:46:53;;;;;;;;;21.33;20.33;;;;;;;;5048569;28;8843;-66
2023/08/15 14:49:18;;;;;;;;;21.67;20.33;;;;;;;;5049205;28;8824;-66
2023/08/15 14:51:43;;;;;;;;;21.67;18.00;;;;;;;;5049220;28;8950;-65
2023/08/15 14:54:09;;;;;;;;;28.33;27.33;;;;;;;;5048829;28;8797;-67
2023/08/15 14:56:34;;;;;;;;;23.33;22.67;;;;;;;;5047581;28;8844;-66
2023/08/15 14:58:59;;;;;;;;;20.67;20.67;;;;;;;;5048770;28;8809;-66
2023/08/15 15:01:28;;;;;;;;;20.00;19.67;;;;;;;;5047665;28;8801;-66
2023/08/15 15:03:53;;;;;;;;;21.50;20.00;;;;;;;;5048849;28;8843;-66
2023/08/15 15:06:18;;;;;;;;;28.00;24.33;;;;;;;;5047382;28;8825;-65
2023/08/15 15:08:44;;;;;;;;;17.33;17.00;;;;;;;;5048860;28;8801;-66
2023/08/15 15:11:09;;;;;;;;;16.00;16.00;;;;;;;;5047514;28;8969;-64
2023/08/15 15:13:35;;;;;;;;;25.00;21.00;;;;;;;;5049001;28;8785;-65